Time;durP1;ratioP1;P1;durP2;ratioP2;P2;SDS_P1;SDS_P2;PMS_P1;PMS_P2;Temp;Humidity;BMP_temperature;BMP_pressure;BME280_temperature;BME280_humidity;BME280_pressure;Samples;Min_cycle;Max_cycle;Signal;HPM_P1;HPM_P2
2022/03/26 00:02:04;;;;;;;101.75;39.65;;;;;;;-141.50;100.00;63355.56;5085138;28;20052;-77
2022/03/26 00:04:32;;;;;;;98.35;39.20;;;;;;;-141.50;100.00;63355.56;5070834;28;20043;-78
2022/03/26 00:06:58;;;;;;;92.90;37.70;;;;;;;-141.50;100.00;63355.56;5106126;28;20047;-77
2022/03/26 00:09:25;;;;;;;103.72;39.72;;;;;;;-141.50;100.00;63355.56;5100736;28;20067;-78
2022/03/26 00:11:51;;;;;;;98.10;37.42;;;;;;;-141.50;100.00;63355.56;5066668;28;20080;-80
2022/03/26 00:14:18;;;;;;;89.90;36.35;;;;;;;-141.50;100.00;63355.56;5094459;28;20093;-78
2022/03/26 00:16:45;;;;;;;92.07;35.28;;;;;;;-141.50;100.00;63355.56;5087204;28;20452;-76
2022/03/26 00:19:12;;;;;;;83.32;33.50;;;;;;;-141.50;100.00;63355.56;5086750;28;20145;-78
2022/03/26 00:21:38;;;;;;;84.20;34.55;;;;;;;-141.50;100.00;63355.56;5095151;28;20075;-78
2022/03/26 00:24:06;;;;;;;95.78;36.88;;;;;;;-141.50;100.00;63355.56;5099940;28;20576;-78
2022/03/26 00:26:34;;;;;;;83.93;35.03;;;;;;;-141.50;100.00;63355.56;5096831;28;20048;-77
2022/03/26 00:29:01;;;;;;;87.85;35.42;;;;;;;-141.50;100.00;63355.56;5084351;28;20048;-78
2022/03/26 00:31:29;;;;;;;88.13;36.00;;;;;;;-141.50;100.00;63355.56;5084607;28;20067;-77
2022/03/26 00:33:56;;;;;;;91.22;36.63;;;;;;;-141.50;100.00;63355.56;5066749;28;20151;-77
2022/03/26 00:36:23;;;;;;;85.65;36.45;;;;;;;-141.50;100.00;63355.56;5085876;28;20126;-76
2022/03/26 00:38:50;;;;;;;97.07;36.63;;;;;;;-141.50;100.00;63355.56;5086063;28;20077;-76
2022/03/26 00:41:16;;;;;;;95.13;37.17;;;;;;;-141.50;100.00;63355.56;5083944;28;20612;-78
2022/03/26 00:43:43;;;;;;;98.35;38.33;;;;;;;-141.50;100.00;63355.56;5086192;28;20468;-79
2022/03/26 00:46:10;;;;;;;95.45;36.95;;;;;;;-141.50;100.00;63355.56;5084779;28;20133;-77
2022/03/26 00:48:41;;;;;;;94.88;36.53;;;;;;;-141.50;100.00;63355.56;5086506;28;20059;-78
2022/03/26 00:51:08;;;;;;;90.68;36.83;;;;;;;-141.50;100.00;63355.56;5085448;28;20803;-76
2022/03/26 00:53:35;;;;;;;94.00;37.28;;;;;;;-141.50;100.00;63355.56;5085209;28;20056;-79
2022/03/26 00:56:04;;;;;;;84.72;35.90;;;;;;;-141.50;100.00;63355.56;5088342;28;20390;-77
2022/03/26 00:58:32;;;;;;;87.55;35.10;;;;;;;-141.50;100.00;63355.56;5109588;28;20032;-78
2022/03/26 01:00:58;;;;;;;81.63;33.88;;;;;;;-141.50;100.00;63355.56;5120720;28;20100;-78
2022/03/26 01:03:25;;;;;;;85.63;35.95;;;;;;;-141.50;100.00;63355.56;5133896;28;20076;-76
2022/03/26 01:05:52;;;;;;;88.68;36.28;;;;;;;-141.50;100.00;63355.56;5112729;28;20466;-77
2022/03/26 01:08:18;;;;;;;95.00;37.60;;;;;;;-141.50;100.00;63355.56;5110991;28;20598;-75
2022/03/26 01:10:46;;;;;;;93.35;37.40;;;;;;;-141.50;100.00;63355.56;5107824;28;20842;-77
2022/03/26 01:13:14;;;;;;;94.03;37.40;;;;;;;-141.50;100.00;63355.56;5099884;28;20052;-77
2022/03/26 01:15:41;;;;;;;99.97;37.33;;;;;;;-141.50;100.00;63355.56;5097476;28;20104;-76
2022/03/26 01:18:09;;;;;;;90.72;35.40;;;;;;;-141.50;100.00;63355.56;5089471;28;20044;-77
2022/03/26 01:20:36;;;;;;;101.07;36.75;;;;;;;-141.50;100.00;63355.56;5088629;28;20117;-79
2022/03/26 01:23:03;;;;;;;97.32;37.00;;;;;;;-141.50;100.00;63355.56;5090318;28;20055;-77
2022/03/26 01:25:30;;;;;;;94.90;36.85;;;;;;;-141.50;100.00;63355.56;5089875;28;20178;-79
2022/03/26 01:27:57;;;;;;;93.15;36.83;;;;;;;-141.50;100.00;63355.56;5089815;28;20048;-78
2022/03/26 01:30:24;;;;;;;91.80;36.70;;;;;;;-141.50;100.00;63355.56;5088133;28;20132;-77
2022/03/26 01:32:52;;;;;;;92.80;37.53;;;;;;;-141.50;100.00;63355.56;5087286;28;20411;-75
2022/03/26 01:35:19;;;;;;;88.03;35.60;;;;;;;-141.50;100.00;63355.56;5088639;28;20044;-78
2022/03/26 01:37:46;;;;;;;89.32;36.15;;;;;;;-141.50;100.00;63355.56;5088012;28;20723;-78
2022/03/26 01:40:13;;;;;;;88.22;35.75;;;;;;;-141.50;100.00;63355.56;5089144;28;20047;-79
2022/03/26 01:42:41;;;;;;;94.22;36.70;;;;;;;-141.50;100.00;63355.56;5087683;28;20411;-76
2022/03/26 01:45:12;;;;;;;95.65;37.90;;;;;;;-141.50;100.00;63355.56;5087721;28;20048;-77
2022/03/26 01:47:40;;;;;;;97.10;37.55;;;;;;;-141.50;100.00;63355.56;5088229;28;20083;-78
2022/03/26 01:50:07;;;;;;;87.07;35.83;;;;;;;-141.50;100.00;63355.56;5088642;28;20048;-77
2022/03/26 01:52:33;;;;;;;96.50;36.60;;;;;;;-141.50;100.00;63355.56;5088061;28;20052;-77
2022/03/26 01:55:00;;;;;;;84.47;34.00;;;;;;;-141.50;100.00;63355.56;5088892;28;20048;-76
2022/03/26 01:57:28;;;;;;;82.30;34.72;;;;;;;-141.50;100.00;63355.56;5070610;28;20044;-79
2022/03/26 01:59:55;;;;;;;83.15;34.60;;;;;;;-141.50;100.00;63355.56;5087804;28;20048;-78
2022/03/26 02:02:23;;;;;;;89.30;35.05;;;;;;;-141.50;100.00;63355.56;5088081;28;20048;-77
2022/03/26 02:04:51;;;;;;;93.85;36.90;;;;;;;-141.50;100.00;63355.56;5088352;28;20135;-78
2022/03/26 02:07:18;;;;;;;81.88;32.92;;;;;;;-141.50;100.00;63355.56;5072097;28;20054;-79
2022/03/26 02:09:44;;;;;;;93.78;34.88;;;;;;;-141.50;100.00;63355.56;5093752;28;20048;-78
2022/03/26 02:12:23;;;;;;;79.93;34.28;;;;;;;-141.50;100.00;63355.56;5093809;28;20083;-77
2022/03/26 02:14:49;;;;;;;95.15;36.75;;;;;;;-141.50;100.00;63355.56;5100783;28;20491;-77
2022/03/26 02:17:19;;;;;;;94.93;36.25;;;;;;;-141.50;100.00;63355.56;5104205;28;20048;-78
2022/03/26 02:19:51;;;;;;;94.50;37.38;;;;;;;-141.50;100.00;63355.56;5088206;28;20067;-77
2022/03/26 02:22:18;;;;;;;89.80;36.78;;;;;;;-141.50;100.00;63355.56;5110925;28;20055;-79
2022/03/26 02:24:44;;;;;;;98.28;37.13;;;;;;;-141.50;100.00;63355.56;5110159;28;20047;-76
2022/03/26 02:27:11;;;;;;;83.40;34.13;;;;;;;-141.50;100.00;63355.56;5102683;28;20055;-77
2022/03/26 02:29:37;;;;;;;81.30;34.28;;;;;;;-141.50;100.00;63355.56;5105599;28;20052;-76
2022/03/26 02:32:05;;;;;;;78.50;32.47;;;;;;;-141.50;100.00;63355.56;5105553;28;20048;-77
2022/03/26 02:34:32;;;;;;;83.47;32.13;;;;;;;-141.50;100.00;63355.56;5105522;28;20055;-76
2022/03/26 02:37:19;;;;;;;78.00;31.80;;;;;;;-141.50;100.00;63355.56;5097395;28;20613;-76
2022/03/26 02:39:46;;;;;;;82.45;33.47;;;;;;;-141.50;100.00;63355.56;5094351;28;20076;-76
2022/03/26 02:42:14;;;;;;;89.75;33.78;;;;;;;-141.50;100.00;63355.56;5091817;28;20151;-77
2022/03/26 02:44:41;;;;;;;86.20;34.42;;;;;;;-141.50;100.00;63355.56;5103932;28;20084;-79
2022/03/26 02:47:10;;;;;;;86.32;33.88;;;;;;;-141.50;100.00;63355.56;5108155;28;20066;-76
2022/03/26 02:49:36;;;;;;;91.32;36.30;;;;;;;-141.50;100.00;63355.56;5102740;28;20060;-77
2022/03/26 02:52:04;;;;;;;95.32;35.33;;;;;;;-141.50;100.00;63355.56;5091565;28;20094;-77
2022/03/26 02:54:30;;;;;;;94.43;36.92;;;;;;;-141.50;100.00;63355.56;5092653;28;20056;-77
2022/03/26 02:56:57;;;;;;;96.30;37.30;;;;;;;-141.50;100.00;63355.56;5091530;28;20083;-78
2022/03/26 02:59:24;;;;;;;99.72;36.95;;;;;;;-141.50;100.00;63355.56;5091762;28;20456;-79
2022/03/26 03:01:54;;;;;;;108.78;38.92;;;;;;;-141.50;100.00;63355.56;5091498;28;20086;-75
2022/03/26 03:04:21;;;;;;;93.82;36.28;;;;;;;-141.50;100.00;63355.56;5092025;28;20098;-76
2022/03/26 03:06:49;;;;;;;95.95;37.22;;;;;;;-141.50;100.00;63355.56;5091784;28;20056;-77
2022/03/26 03:09:15;;;;;;;88.00;36.00;;;;;;;-141.50;100.00;63355.56;5091854;28;20190;-78
2022/03/26 03:11:42;;;;;;;88.63;35.40;;;;;;;-141.50;100.00;63355.56;5090455;28;20113;-77
2022/03/26 03:14:10;;;;;;;93.22;36.30;;;;;;;-141.50;100.00;63355.56;5098894;28;20048;-78
2022/03/26 03:16:37;;;;;;;94.00;35.67;;;;;;;-141.50;100.00;63355.56;5103529;28;20043;-78
2022/03/26 03:19:04;;;;;;;84.68;34.28;;;;;;;-141.50;100.00;63355.56;5111214;28;20055;-77
2022/03/26 03:21:32;;;;;;;90.07;34.90;;;;;;;-141.50;100.00;63355.56;5110771;28;20047;-77
2022/03/26 03:24:01;;;;;;;85.38;33.67;;;;;;;-141.50;100.00;63355.56;5111569;28;20047;-75
2022/03/26 03:26:27;;;;;;;92.45;36.72;;;;;;;-141.50;100.00;63355.56;5111583;28;20047;-79
2022/03/26 03:28:54;;;;;;;88.93;34.03;;;;;;;-141.50;100.00;63355.56;5111459;28;20474;-76
2022/03/26 03:31:20;;;;;;;89.60;34.83;;;;;;;-141.50;100.00;63355.56;5092076;28;20055;-77
2022/03/26 03:33:47;;;;;;;89.15;34.30;;;;;;;-141.50;100.00;63355.56;5111539;28;20418;-77
2022/03/26 03:36:14;;;;;;;90.85;34.10;;;;;;;-141.50;100.00;63355.56;5111038;28;20183;-76
2022/03/26 03:38:41;;;;;;;83.82;33.40;;;;;;;-141.50;100.00;63355.56;5111182;28;20123;-78
2022/03/26 03:41:09;;;;;;;82.85;33.03;;;;;;;-141.50;100.00;63355.56;5110495;28;20438;-77
2022/03/26 03:43:36;;;;;;;73.97;30.85;;;;;;;-141.50;100.00;63355.56;5111376;28;20120;-79
2022/03/26 03:46:02;;;;;;;81.57;31.45;;;;;;;-141.50;100.00;63355.56;5110629;28;20081;-78
2022/03/26 03:48:29;;;;;;;76.43;32.25;;;;;;;-141.50;100.00;63355.56;5093128;28;20075;-75
2022/03/26 03:50:55;;;;;;;75.55;31.88;;;;;;;-141.50;100.00;63355.56;5110192;28;20044;-77
2022/03/26 03:53:22;;;;;;;83.57;32.08;;;;;;;-141.50;100.00;63355.56;5111892;28;20116;-78
2022/03/26 03:55:48;;;;;;;76.38;31.70;;;;;;;-141.50;100.00;63355.56;5096284;28;20129;-79
2022/03/26 03:58:15;;;;;;;88.82;34.22;;;;;;;-141.50;100.00;63355.56;5090420;28;20488;-78
2022/03/26 04:00:42;;;;;;;81.07;32.47;;;;;;;-141.50;100.00;63355.56;5089404;28;20404;-79
2022/03/26 04:03:09;;;;;;;81.78;31.10;;;;;;;-141.50;100.00;63355.56;5074058;28;20048;-77
2022/03/26 04:05:35;;;;;;;79.15;31.75;;;;;;;-141.50;100.00;63355.56;5089846;28;20063;-78
2022/03/26 04:08:02;;;;;;;84.20;33.25;;;;;;;-141.50;100.00;63355.56;5091116;28;20136;-78
2022/03/26 04:10:29;;;;;;;91.13;34.22;;;;;;;-141.50;100.00;63355.56;5090323;28;20522;-78
2022/03/26 04:12:57;;;;;;;95.22;35.30;;;;;;;-141.50;100.00;63355.56;5090538;28;20055;-77
2022/03/26 04:15:24;;;;;;;87.82;33.92;;;;;;;-141.50;100.00;63355.56;5101502;28;20048;-76
2022/03/26 04:17:54;;;;;;;92.22;34.25;;;;;;;-141.50;100.00;63355.56;5094520;28;20071;-78
2022/03/26 04:20:21;;;;;;;88.10;35.45;;;;;;;-141.50;100.00;63355.56;5111349;28;20141;-77
2022/03/26 04:22:48;;;;;;;94.18;35.58;;;;;;;-141.50;100.00;63355.56;5110411;28;20055;-78
2022/03/26 04:25:14;;;;;;;97.18;36.13;;;;;;;-141.50;100.00;63355.56;5111129;28;20071;-79
2022/03/26 04:27:43;;;;;;;85.60;36.08;;;;;;;-141.50;100.00;63355.56;5115239;28;20051;-75
2022/03/26 04:30:12;;;;;;;91.93;35.95;;;;;;;-141.50;100.00;63355.56;5116031;28;20061;-76
2022/03/26 04:32:38;;;;;;;91.57;34.15;;;;;;;-141.50;100.00;63355.56;5112904;28;20051;-77
2022/03/26 04:35:05;;;;;;;88.45;35.50;;;;;;;-141.50;100.00;63355.56;5111003;28;20048;-78
2022/03/26 04:37:34;;;;;;;89.00;34.28;;;;;;;-141.50;100.00;63355.56;5111771;28;20044;-78
2022/03/26 04:40:02;;;;;;;82.70;32.65;;;;;;;-141.50;100.00;63355.56;5111113;28;20656;-77
2022/03/26 04:42:29;;;;;;;91.20;35.63;;;;;;;-141.50;100.00;63355.56;5110297;28;20044;-78
2022/03/26 04:44:56;;;;;;;91.65;34.72;;;;;;;-141.50;100.00;63355.56;5098806;28;20051;-78
2022/03/26 04:47:22;;;;;;;76.90;33.35;;;;;;;-141.50;100.00;63355.56;5110289;28;20071;-77
2022/03/26 04:49:49;;;;;;;78.03;33.20;;;;;;;-141.50;100.00;63355.56;5110893;28;20079;-77
2022/03/26 04:52:16;;;;;;;82.82;34.90;;;;;;;-141.50;100.00;63355.56;5112318;28;20048;-76
2022/03/26 04:54:43;;;;;;;86.47;34.75;;;;;;;-141.50;100.00;63355.56;5111217;28;20055;-78
2022/03/26 04:57:10;;;;;;;95.45;34.75;;;;;;;-141.50;100.00;63355.56;5110573;28;20056;-79
2022/03/26 04:59:36;;;;;;;86.88;33.05;;;;;;;-141.50;100.00;63355.56;5091641;28;20440;-78
2022/03/26 05:02:03;;;;;;;82.10;31.95;;;;;;;-141.50;100.00;63355.56;5109378;28;20116;-77
2022/03/26 05:04:30;;;;;;;77.30;32.97;;;;;;;-141.50;100.00;63355.56;5110790;28;20104;-78
2022/03/26 05:06:57;;;;;;;87.30;31.50;;;;;;;-141.50;100.00;63355.56;5101949;28;20051;-77
2022/03/26 05:09:24;;;;;;;80.95;32.08;;;;;;;-141.50;100.00;63355.56;5091064;28;20051;-77
2022/03/26 05:11:50;;;;;;;85.68;32.35;;;;;;;-141.50;100.00;63355.56;5094748;28;20052;-77
2022/03/26 05:14:17;;;;;;;85.75;33.47;;;;;;;-141.50;100.00;63355.56;5112869;28;20063;-78
2022/03/26 05:16:44;;;;;;;83.35;32.42;;;;;;;-141.50;100.00;63355.56;5111556;28;20082;-76
2022/03/26 05:19:11;;;;;;;77.68;32.45;;;;;;;-141.50;100.00;63355.56;5110290;28;20048;-78
2022/03/26 05:21:37;;;;;;;84.63;32.63;;;;;;;-141.50;100.00;63355.56;5108157;28;20396;-78
2022/03/26 05:24:05;;;;;;;85.63;33.25;;;;;;;-141.50;100.00;63355.56;5107571;28;20059;-77
2022/03/26 05:26:32;;;;;;;77.00;32.30;;;;;;;-141.50;100.00;63355.56;5109400;28;20051;-78
2022/03/26 05:29:00;;;;;;;75.68;33.17;;;;;;;-141.50;100.00;63355.56;5109293;28;20043;-77
2022/03/26 05:31:28;;;;;;;84.03;31.58;;;;;;;-141.50;100.00;63355.56;5108217;28;20078;-77
2022/03/26 05:33:55;;;;;;;76.82;32.65;;;;;;;-141.50;100.00;63355.56;5091289;28;20158;-78
2022/03/26 05:36:22;;;;;;;89.95;34.22;;;;;;;-141.50;100.00;63355.56;5109253;28;20120;-78
2022/03/26 05:38:48;;;;;;;98.65;36.28;;;;;;;-141.50;100.00;63355.56;5109422;28;20077;-77
2022/03/26 05:41:15;;;;;;;89.25;33.95;;;;;;;-141.50;100.00;63355.56;5108697;28;20062;-77
2022/03/26 05:43:42;;;;;;;96.72;34.38;;;;;;;-141.50;100.00;63355.56;5112863;28;20052;-78
2022/03/26 05:46:09;;;;;;;92.05;33.53;;;;;;;-141.50;100.00;63355.56;5113661;28;20070;-77
2022/03/26 05:48:36;;;;;;;84.63;34.88;;;;;;;-141.50;100.00;63355.56;5101184;28;20407;-76
2022/03/26 05:51:02;;;;;;;81.50;34.05;;;;;;;-141.50;100.00;63355.56;5135104;28;20052;-78
2022/03/26 05:53:29;;;;;;;89.18;34.00;;;;;;;-141.50;100.00;63355.56;5137317;28;20127;-75
2022/03/26 05:55:56;;;;;;;78.35;32.17;;;;;;;-141.50;100.00;63355.56;5116250;28;20055;-77
2022/03/26 05:58:22;;;;;;;76.38;33.17;;;;;;;-141.50;100.00;63355.56;5113820;28;20040;-76
2022/03/26 06:00:49;;;;;;;80.07;32.33;;;;;;;-141.50;100.00;63355.56;5112879;28;20052;-77
2022/03/26 06:03:18;;;;;;;77.38;31.67;;;;;;;-141.50;100.00;63355.56;5096337;28;20043;-77
2022/03/26 06:05:46;;;;;;;75.47;33.03;;;;;;;-141.50;100.00;63355.56;5113031;28;20378;-76
2022/03/26 06:08:13;;;;;;;76.25;33.15;;;;;;;-141.50;100.00;63355.56;5114502;28;20073;-76
2022/03/26 06:10:39;;;;;;;76.75;32.42;;;;;;;-141.50;100.00;63355.56;5112510;28;20400;-77
2022/03/26 06:13:06;;;;;;;93.35;35.78;;;;;;;-141.50;100.00;63355.56;5105118;28;20052;-76
2022/03/26 06:15:34;;;;;;;96.03;36.40;;;;;;;-141.50;100.00;63355.56;5106782;28;20083;-78
2022/03/26 06:18:12;;;;;;;114.97;41.65;;;;;;;-141.50;100.00;63355.56;5093165;28;20059;-76
2022/03/26 06:20:39;;;;;;;99.47;39.25;;;;;;;-141.50;100.00;63355.56;5092114;28;20441;-76
2022/03/26 06:23:07;;;;;;;91.75;36.00;;;;;;;-141.50;100.00;63355.56;5093893;28;20047;-76
2022/03/26 06:25:34;;;;;;;83.22;33.60;;;;;;;-141.50;100.00;63355.56;5091993;28;20139;-76
2022/03/26 06:28:01;;;;;;;98.60;38.38;;;;;;;-141.50;100.00;63355.56;5093032;28;20462;-76
2022/03/26 06:30:27;;;;;;;90.18;35.33;;;;;;;-141.50;100.00;63355.56;5092026;28;20208;-76
2022/03/26 06:32:54;;;;;;;93.30;38.95;;;;;;;-141.50;100.00;63355.56;5091963;28;20052;-78
2022/03/26 06:35:21;;;;;;;99.10;39.28;;;;;;;-141.50;100.00;63355.56;5092835;28;20535;-78
2022/03/26 06:37:47;;;;;;;93.55;38.42;;;;;;;-141.50;100.00;63355.56;5104185;28;20032;-77
2022/03/26 06:40:14;;;;;;;102.32;40.28;;;;;;;-141.50;100.00;63355.56;5108406;28;20052;-78
2022/03/26 06:42:40;;;;;;;98.50;34.97;;;;;;;-141.50;100.00;63355.56;5109526;28;20044;-77
2022/03/26 06:45:07;;;;;;;103.60;39.03;;;;;;;-141.50;100.00;63355.56;5108443;28;20044;-80
2022/03/26 06:47:34;;;;;;;102.68;37.85;;;;;;;-141.50;100.00;63355.56;5091221;28;20090;-76
2022/03/26 06:50:00;;;;;;;104.50;39.05;;;;;;;-141.50;100.00;63355.56;5090395;28;20110;-78
2022/03/26 06:52:27;;;;;;;105.63;39.15;;;;;;;-141.50;100.00;63355.56;5095091;28;20140;-76
2022/03/26 06:54:54;;;;;;;93.68;38.92;;;;;;;-141.50;100.00;63355.56;5096935;28;20071;-79
2022/03/26 06:57:20;;;;;;;89.57;37.58;;;;;;;-141.50;100.00;63355.56;5092651;28;20048;-77
2022/03/26 06:59:47;;;;;;;82.07;34.65;;;;;;;-141.50;100.00;63355.56;5091095;28;20068;-78
2022/03/26 07:02:14;;;;;;;92.07;35.17;;;;;;;-141.50;100.00;63355.56;5091973;28;20084;-78
2022/03/26 07:04:40;;;;;;;74.97;33.20;;;;;;;-141.50;100.00;63355.56;5091891;28;20059;-76
2022/03/26 07:07:07;;;;;;;75.60;33.80;;;;;;;-141.50;100.00;63355.56;5091848;28;20143;-78
2022/03/26 07:09:34;;;;;;;77.05;33.20;;;;;;;-141.50;100.00;63355.56;5091948;28;20040;-77
2022/03/26 07:12:00;;;;;;;84.50;34.50;;;;;;;-141.50;100.00;63355.56;5090617;28;20059;-78
2022/03/26 07:14:27;;;;;;;86.22;37.63;;;;;;;-141.50;100.00;63355.56;5103439;28;20518;-78
2022/03/26 07:16:53;;;;;;;77.65;35.05;;;;;;;-141.50;100.00;63355.56;5091778;28;20134;-78
2022/03/26 07:19:21;;;;;;;74.18;35.28;;;;;;;-141.50;100.00;63355.56;5094491;28;20071;-76
2022/03/26 07:21:48;;;;;;;69.30;30.27;;;;;;;-141.50;100.00;63355.56;5090491;28;20390;-76
2022/03/26 07:24:15;;;;;;;69.05;30.85;;;;;;;-141.50;100.00;63355.56;5089016;28;20052;-77
2022/03/26 07:26:41;;;;;;;68.65;28.30;;;;;;;-141.50;100.00;63355.56;5086542;28;20516;-77
2022/03/26 07:29:08;;;;;;;63.28;27.02;;;;;;;-141.50;100.00;63355.56;5087595;28;20445;-77
2022/03/26 07:31:34;;;;;;;58.88;26.40;;;;;;;-141.50;100.00;63355.56;5085557;28;20162;-77
2022/03/26 07:34:01;;;;;;;64.72;27.48;;;;;;;-141.50;100.00;63355.56;5091090;28;20052;-78
2022/03/26 07:36:28;;;;;;;72.22;28.20;;;;;;;-141.50;100.00;63355.56;5119646;28;20162;-79
2022/03/26 07:38:55;;;;;;;58.67;26.45;;;;;;;-141.50;100.00;63355.56;5101988;28;20048;-79
2022/03/26 07:41:21;;;;;;;65.47;27.98;;;;;;;-141.50;100.00;63355.56;5086852;28;20109;-78
2022/03/26 07:43:48;;;;;;;63.40;27.05;;;;;;;-141.50;100.00;63355.56;5087431;28;20048;-77
2022/03/26 07:46:18;;;;;;;61.90;27.63;;;;;;;-141.50;100.00;63355.56;5086134;28;20055;-79
2022/03/26 07:48:45;;;;;;;60.40;27.73;;;;;;;-141.50;100.00;63355.56;5069293;28;20144;-77
2022/03/26 07:51:12;;;;;;;55.40;26.30;;;;;;;-141.50;100.00;63355.56;5085436;28;20103;-78
2022/03/26 07:53:38;;;;;;;64.82;28.73;;;;;;;-141.50;100.00;63355.56;5087552;28;20058;-79
2022/03/26 07:56:06;;;;;;;63.17;26.95;;;;;;;-141.50;100.00;63355.56;5085737;28;20419;-79
2022/03/26 07:58:32;;;;;;;60.30;27.65;;;;;;;-141.50;100.00;63355.56;5086666;28;20385;-77
2022/03/26 08:00:59;;;;;;;70.30;28.52;;;;;;;-141.50;100.00;63355.56;5088450;28;20044;-76
2022/03/26 08:03:26;;;;;;;58.42;27.30;;;;;;;-141.50;100.00;63355.56;5090703;28;20051;-77
2022/03/26 08:05:53;;;;;;;66.45;28.75;;;;;;;-141.50;100.00;63355.56;5089305;28;20056;-77
2022/03/26 08:08:19;;;;;;;64.20;27.30;;;;;;;-141.50;100.00;63355.56;5072692;28;20040;-80
2022/03/26 08:10:46;;;;;;;67.10;29.02;;;;;;;-141.50;100.00;63355.56;5089251;28;20048;-78
2022/03/26 08:13:13;;;;;;;75.18;29.15;;;;;;;-141.50;100.00;63355.56;5091592;28;20071;-78
2022/03/26 08:15:39;;;;;;;71.20;28.42;;;;;;;-141.50;100.00;63355.56;5104101;28;20047;-77
2022/03/26 08:18:06;;;;;;;65.15;27.55;;;;;;;-141.50;100.00;63355.56;5090274;28;20052;-77
2022/03/26 08:20:32;;;;;;;61.90;27.38;;;;;;;-141.50;100.00;63355.56;5088933;28;20099;-78
2022/03/26 08:22:59;;;;;;;65.25;28.75;;;;;;;-141.50;100.00;63355.56;5091248;28;20125;-77
2022/03/26 08:28:11;;;;;;;67.28;27.50;;;;;;;-141.50;100.00;63355.56;5090080;28;20063;-78
2022/03/26 08:30:38;;;;;;;64.10;29.30;;;;;;;-141.50;100.00;63355.56;5088735;28;20048;-78
2022/03/26 08:33:05;;;;;;;71.70;29.88;;;;;;;-141.50;100.00;63355.56;5089271;28;20059;-78
2022/03/26 08:35:38;;;;;;;66.85;29.45;;;;;;;-141.50;100.00;63355.56;5089507;28;20056;-77
2022/03/26 08:38:06;;;;;;;64.63;29.42;;;;;;;-141.50;100.00;63355.56;5090933;28;20143;-77
2022/03/26 08:40:33;;;;;;;64.00;29.15;;;;;;;-141.50;100.00;63355.56;5089819;28;20055;-77
2022/03/26 08:43:00;;;;;;;64.63;29.65;;;;;;;-141.50;100.00;63355.56;5090174;28;20528;-79
2022/03/26 08:45:27;;;;;;;59.45;29.38;;;;;;;-141.50;100.00;63355.56;5088977;28;20466;-79
2022/03/26 08:47:55;;;;;;;59.17;29.27;;;;;;;-141.50;100.00;63355.56;5090054;28;20048;-78
2022/03/26 08:50:22;;;;;;;66.57;29.63;;;;;;;-141.50;100.00;63355.56;5089790;28;20524;-77
2022/03/26 08:52:49;;;;;;;66.13;29.13;;;;;;;-141.50;100.00;63355.56;5090103;28;20078;-78
2022/03/26 08:55:17;;;;;;;63.00;28.85;;;;;;;-141.50;100.00;63355.56;5088840;28;20083;-79
2022/03/26 08:57:44;;;;;;;61.47;28.95;;;;;;;-141.50;100.00;63355.56;5091586;28;20048;-79
2022/03/26 09:00:13;;;;;;;64.68;28.60;;;;;;;-141.50;100.00;63355.56;5071165;28;20365;-77
2022/03/26 09:02:40;;;;;;;70.28;31.17;;;;;;;-141.50;100.00;63355.56;5087976;28;20106;-78
2022/03/26 09:05:08;;;;;;;63.60;29.77;;;;;;;-141.50;100.00;63355.56;5089095;28;20059;-78
2022/03/26 09:07:35;;;;;;;61.10;29.05;;;;;;;-141.50;100.00;63355.56;5089796;28;20456;-77
2022/03/26 09:10:03;;;;;;;65.68;29.85;;;;;;;-141.50;100.00;63355.56;5090070;28;20067;-80
2022/03/26 09:12:29;;;;;;;68.72;29.08;;;;;;;-141.50;100.00;63355.56;5089645;28;20052;-79
2022/03/26 09:14:56;;;;;;;61.22;29.50;;;;;;;-141.50;100.00;63355.56;5091115;28;20062;-79
2022/03/26 09:17:22;;;;;;;70.32;31.35;;;;;;;-141.50;100.00;63355.56;5131023;28;20055;-81
2022/03/26 09:19:49;;;;;;;68.22;29.90;;;;;;;-141.50;100.00;63355.56;5131769;28;20066;-77
2022/03/26 09:22:15;;;;;;;61.88;30.13;;;;;;;-141.50;100.00;63355.56;5114531;28;20476;-76
2022/03/26 09:24:42;;;;;;;60.60;30.23;;;;;;;-141.50;100.00;63355.56;5120996;28;20066;-78
2022/03/26 09:27:10;;;;;;;61.45;29.30;;;;;;;-141.50;100.00;63355.56;5114728;28;20051;-78
2022/03/26 09:29:37;;;;;;;58.70;29.48;;;;;;;-141.50;100.00;63355.56;5113208;28;20465;-77
2022/03/26 09:32:04;;;;;;;71.50;30.52;;;;;;;-141.50;100.00;63355.56;5109151;28;20058;-76
2022/03/26 09:34:30;;;;;;;69.70;30.13;;;;;;;-141.50;100.00;63355.56;5110132;28;20047;-78
2022/03/26 09:36:57;;;;;;;64.45;29.95;;;;;;;-141.50;100.00;63355.56;5109583;28;20073;-77
2022/03/26 09:39:24;;;;;;;59.38;28.67;;;;;;;-141.50;100.00;63355.56;5091726;28;20069;-78
2022/03/26 09:41:52;;;;;;;60.75;28.15;;;;;;;-141.50;100.00;63355.56;5108520;28;20047;-76
2022/03/26 09:44:20;;;;;;;66.60;29.27;;;;;;;-141.50;100.00;63355.56;5109261;28;20056;-78
2022/03/26 09:46:46;;;;;;;63.40;28.55;;;;;;;-141.50;100.00;63355.56;5090460;28;20105;-78
2022/03/26 09:49:13;;;;;;;61.35;28.60;;;;;;;-141.50;100.00;63355.56;5109530;28;20059;-77
2022/03/26 09:51:40;;;;;;;59.78;29.35;;;;;;;-141.50;100.00;63355.56;5108659;28;20081;-77
2022/03/26 09:54:08;;;;;;;69.25;30.88;;;;;;;-141.50;100.00;63355.56;5108951;28;20427;-77
2022/03/26 09:56:35;;;;;;;54.88;28.13;;;;;;;-141.50;100.00;63355.56;5111543;28;20052;-79
2022/03/26 09:59:02;;;;;;;64.13;28.58;;;;;;;-141.50;100.00;63355.56;5095669;28;20086;-78
2022/03/26 10:01:29;;;;;;;68.47;31.77;;;;;;;-141.50;100.00;63355.56;5104061;28;20086;-81
2022/03/26 10:04:13;;;;;;;69.80;31.45;;;;;;;-141.50;100.00;63355.56;5105540;28;20048;-78
2022/03/26 10:06:48;;;;;;;63.88;31.10;;;;;;;-141.50;100.00;63355.56;5063931;28;20115;-78
2022/03/26 10:09:27;;;;;;;61.05;28.25;;;;;;;-141.50;100.00;63355.56;5087236;28;20108;-79
2022/03/26 10:11:59;;;;;;;58.88;28.27;;;;;;;-141.50;100.00;63355.56;5087332;28;20083;-77
2022/03/26 10:14:36;;;;;;;63.72;28.30;;;;;;;-141.50;100.00;63355.56;5086448;28;20105;-78
2022/03/26 10:17:15;;;;;;;61.60;27.48;;;;;;;-141.50;100.00;63355.56;5070912;28;20048;-79
2022/03/26 10:19:48;;;;;;;58.90;27.08;;;;;;;-141.50;100.00;63355.56;5102785;28;20203;-79
2022/03/26 10:22:34;;;;;;;56.13;28.02;;;;;;;-141.50;100.00;63355.56;5091982;28;20052;-79
2022/03/26 10:25:00;;;;;;;;;;;;;;;-141.50;100.00;63355.56;5110805;28;20075;-80
2022/03/26 10:27:32;;;;;;;51.50;25.58;;;;;;;-141.50;100.00;63355.56;5106758;28;19923;-79
2022/03/26 10:29:59;;;;;;;52.35;26.25;;;;;;;-141.50;100.00;63355.56;5098325;28;20073;-79
2022/03/26 10:32:45;;;;;;;53.63;27.08;;;;;;;-141.50;100.00;63355.56;5093302;28;20067;-79
2022/03/26 10:35:19;;;;;;;47.22;25.58;;;;;;;-141.50;100.00;63355.56;5098148;28;20135;-81
2022/03/26 10:37:56;;;;;;;54.10;26.55;;;;;;;-141.50;100.00;63355.56;5100296;28;20063;-80
2022/03/26 10:40:24;;;;;;;47.22;25.23;;;;;;;-141.50;100.00;63355.56;5097388;28;20051;-81
2022/03/26 10:43:00;;;;;;;46.75;25.73;;;;;;;-141.50;100.00;63355.56;5097212;28;20252;-79
2022/03/26 10:45:28;;;;;;;44.53;23.88;;;;;;;-141.50;100.00;63355.56;5098321;28;20396;-81
2022/03/26 10:47:59;;;;;;;43.58;21.33;;;;;;;-141.50;100.00;63355.56;5092659;28;20354;-79
2022/03/26 10:50:33;;;;;;;48.42;23.00;;;;;;;-141.50;100.00;63355.56;5090131;28;20087;-82
2022/03/26 10:53:11;;;;;;;45.17;24.25;;;;;;;-141.50;100.00;63355.56;5091182;28;20083;-79
2022/03/26 10:55:43;;;;;;;50.63;25.23;;;;;;;-141.50;100.00;63355.56;5096401;28;20142;-79
2022/03/26 10:58:10;;;;;;;44.15;23.30;;;;;;;-141.50;100.00;63355.56;5110630;28;20048;-80
2022/03/26 11:00:37;;;;;;;49.85;22.45;;;;;;;-141.50;100.00;63355.56;5099019;28;20534;-78